Impacts TAF Board
For situational awareness. Not to be used for flight planning purposes.
IDs:

KSEA - Seattle-Tacoma Intl, WA, US

Issued at 1151 UTC 30 Mar 2020
Updated at 1339 UTC 30 Mar 2020
Potential Impact None Slight Moderate High
Time1302Z 30/14Z 30/15Z 30/16Z 30/17Z 30/18Z 30/19Z 30/20Z 30/21Z 30/22Z 30/23Z 31/00Z 31/01Z 31/02Z>>
Type OBS PRVL PRVL PRVL PRVL PRVL PRVL PRVL PRVL PRVL PRVL PRVL PRVL PRVL
VIS 9 >6 >6 >6 >6 >6 >6 >6 >6 >6 >6 >6 >6 >6
CIG 32 35 35 35 35 35 30 30 30 30 30 30 30 30
Cover OVC OVC OVC OVC OVC OVC BKN BKN BKN BKN BKN BKN BKN BKN
FltCat VFR VFR VFR VFR VFR VFR MVFR MVFR MVFR MVFR MVFR MVFR MVFR MVFR
WX -RA -RA -RA -RA -RA -RA -SHRA -SHRA -SHRA -SHRA -SHRA -SHRA -SHRA -SHRA
WDir 200 190 190 190 190 190 210 210 210 210 210 210 210 210
WSpd 17 14 14 14 14 14 18 18 18 18 18 18 18 18
WGst 25 23 23 23 23 23 27 27 27 27 27 27 27 27
Raw TAF
KSEA 301151Z 3012/3118 17017KT P6SM -RA FEW015 OVC030
  FM301300 19014G23KT P6SM -RA OVC035
  FM301900 21018G27KT P6SM -SHRA BKN030
  FM310300 19011KT P6SM -SHRA BKN035
  FM310900 17006KT P6SM -SHRA OVC020


Raw METAR
KSEA 301302Z 20017G25KT 9SM -RA FEW009 BKN032 OVC040 06/04 A2966 RMK AO2 P0000 T00560039
KSEA 301253Z 20017G23KT 8SM -RA FEW009 FEW016 OVC028 06/03 A2966 RMK AO2 PK WND 24030/1200 SLP051 P0011 T00560033
KSEA 301157Z 23012KT 5SM -RA BR FEW009 BKN025 OVC030 08/06 A2961 RMK AO2 P0000 T00780061
KSEA 301153Z 21011KT 7SM -RA FEW018 OVC030 08/06 A2960 RMK AO2 SLP031 P0006 60017 70027 T00780061 10100 20078 56012
KSEA 301145Z 19012G18KT 7SM -RA FEW018 OVC030 08/06 A2960 RMK AO2 P0004 T00780061
KSEA 301107Z 17012KT 7SM -RA FEW018 SCT024 OVC029 08/06 A2959 RMK AO2 P0003 T00780061
KSEA 301053Z 19011KT 7SM -RA OVC033 08/06 A2960 RMK AO2 SLP031 P0007 T00830061

METAR Board
Radar Display
Forecast Discussion
For situational awareness. Not to be used for flight planning purposes.